Terminal Aerodrome Forecast
Issued by NWS

Home | Current Version | Previous Version | Graphics & Text | Print | Product List | Glossary On
Versions: 1 2 3 4 5 6 7 8 9 10 11 12 13 14 15 16 17
462
FTUS43 KMPX 222338
TAFAXN
TAF
KAXN 222338Z 2300/2324 15016G22KT P6SM OVC070
     FM231500 16014G20KT P6SM OVC030
     FM232100 16013KT 4SM -DZ BR OVC007=

USA.gov is the U.S. government's official web portal to all federal, state and local government web resources and services.